createdAt,value
2023-01-08T00:01:53.847Z,85.99
2023-01-08T00:04:23.181Z,85.90
2023-01-08T00:06:54.015Z,86.01
2023-01-08T00:09:23.321Z,86.23
2023-01-08T00:11:52.537Z,86.07
2023-01-08T00:14:21.912Z,85.91
2023-01-08T00:16:52.294Z,86.08
2023-01-08T00:19:21.531Z,85.84
2023-01-08T00:21:50.832Z,86.16
2023-01-08T00:24:21.677Z,86.22
2023-01-08T00:26:50.997Z,86.08
2023-01-08T00:29:20.167Z,85.74
2023-01-08T00:31:49.510Z,86.11
2023-01-08T00:34:18.822Z,86.00
2023-01-08T00:36:48.121Z,86.27
2023-01-08T00:39:17.372Z,85.90
2023-01-08T00:41:50.097Z,85.76
2023-01-08T00:44:19.360Z,86.20
2023-01-08T00:46:48.660Z,86.02
2023-01-08T00:49:17.849Z,85.75
2023-01-08T00:51:47.098Z,86.12
2023-01-08T00:54:16.400Z,86.33
2023-01-08T00:56:47.128Z,86.34
2023-01-08T00:59:16.429Z,85.76
2023-01-08T01:01:45.898Z,86.06
2023-01-08T01:04:15.856Z,85.86
2023-01-08T01:06:45.753Z,85.87
2023-01-08T01:09:15.110Z,85.96
2023-01-08T01:11:44.351Z,86.10
2023-01-08T01:14:15.181Z,86.28
2023-01-08T01:16:44.513Z,85.98
2023-01-08T01:19:13.842Z,85.92
2023-01-08T01:21:43.365Z,85.94
2023-01-08T01:24:16.178Z,85.97
2023-01-08T01:26:45.845Z,85.87
2023-01-08T01:29:16.797Z,85.60
2023-01-08T01:31:46.062Z,85.88
2023-01-08T01:34:15.418Z,85.90
2023-01-08T01:36:44.756Z,85.75
2023-01-08T01:39:14.074Z,85.85
2023-01-08T01:41:45.749Z,85.92
2023-01-08T01:44:39.902Z,85.74
2023-01-08T01:47:18.005Z,85.56
2023-01-08T01:49:55.076Z,85.30
2023-01-08T01:52:25.290Z,85.34
2023-01-08T01:54:55.567Z,85.34
2023-01-08T01:57:25.559Z,85.38
2023-01-08T01:59:59.345Z,85.48
2023-01-08T02:02:28.870Z,85.39
2023-01-08T02:04:58.271Z,85.55
2023-01-08T02:07:36.295Z,85.40
2023-01-08T02:10:11.789Z,85.51
2023-01-08T02:12:46.559Z,85.12
2023-01-08T02:15:25.417Z,84.85
2023-01-08T02:18:00.045Z,85.14
2023-01-08T02:20:34.651Z,84.84
2023-01-08T02:23:16.721Z,84.85
2023-01-08T02:26:20.973Z,84.59
2023-01-08T02:28:54.867Z,84.66
2023-01-08T02:31:27.367Z,84.89
2023-01-08T02:33:56.966Z,84.87
2023-01-08T02:36:34.712Z,85.22
2023-01-08T02:39:16.613Z,84.62
2023-01-08T02:42:06.395Z,84.63
2023-01-08T02:44:45.942Z,84.76
2023-01-08T02:47:24.026Z,84.38
2023-01-08T02:49:57.227Z,84.50
2023-01-08T02:52:30.412Z,84.58
2023-01-08T02:55:02.558Z,84.55
2023-01-08T02:57:35.872Z,84.46
2023-01-08T03:00:07.183Z,84.84
2023-01-08T03:02:40.364Z,84.64
2023-01-08T03:05:16.510Z,84.29
2023-01-08T03:07:46.033Z,84.44
2023-01-08T03:10:15.451Z,84.66
2023-01-08T03:12:55.848Z,84.18
2023-01-08T03:15:32.510Z,84.46
2023-01-08T03:18:06.940Z,84.15
2023-01-08T03:20:39.988Z,84.27
2023-01-08T03:23:12.852Z,84.13
2023-01-08T03:25:45.782Z,84.05
2023-01-08T03:28:22.426Z,83.80
2023-01-08T03:30:54.878Z,83.42
2023-01-08T03:33:26.880Z,83.63
2023-01-08T03:35:59.008Z,83.29
2023-01-08T03:38:32.553Z,83.52
2023-01-08T03:41:06.575Z,83.77
2023-01-08T03:43:37.435Z,83.66
2023-01-08T03:46:11.899Z,83.81
2023-01-08T03:48:43.028Z,83.84
2023-01-08T03:51:12.884Z,84.12
2023-01-08T03:53:42.224Z,84.11
2023-01-08T03:56:11.461Z,83.99
2023-01-08T03:58:42.252Z,84.01
2023-01-08T04:01:11.653Z,84.04
2023-01-08T04:03:40.978Z,84.27
2023-01-08T04:06:10.303Z,84.38
2023-01-08T04:08:40.586Z,84.28
2023-01-08T04:11:09.821Z,84.08
2023-01-08T04:13:39.439Z,84.37
2023-01-08T04:16:10.589Z,84.35
2023-01-08T04:18:40.018Z,84.42
2023-01-08T04:21:09.302Z,84.29
2023-01-08T04:23:38.739Z,84.18
2023-01-08T04:26:08.648Z,84.51
2023-01-08T04:28:38.395Z,84.27
2023-01-08T04:31:10.318Z,84.15
2023-01-08T04:33:39.816Z,84.34
2023-01-08T04:36:09.438Z,84.48
2023-01-08T04:38:38.798Z,84.25
2023-01-08T04:41:08.555Z,84.30
2023-01-08T04:43:37.823Z,84.43
2023-01-08T04:46:09.460Z,84.35
2023-01-08T04:48:39.136Z,84.50
2023-01-08T04:51:08.771Z,84.61
2023-01-08T04:53:40.955Z,84.56
2023-01-08T04:56:11.878Z,84.74
2023-01-08T04:58:42.263Z,84.75
